sensor_id;sensor_type;location;lat;lon;timestamp;P1;durP1;ratioP1;P2;durP2;ratioP2
19251;SDS011;9760;50.944;5.304;2023-07-31T00:00:14;15.57;;;4.17;;
19251;SDS011;9760;50.944;5.304;2023-07-31T00:02:39;15.07;;;4.10;;
19251;SDS011;9760;50.944;5.304;2023-07-31T00:05:06;20.03;;;4.63;;
19251;SDS011;9760;50.944;5.304;2023-07-31T00:07:33;19.33;;;4.80;;
19251;SDS011;9760;50.944;5.304;2023-07-31T00:09:58;25.17;;;4.77;;
19251;SDS011;9760;50.944;5.304;2023-07-31T00:12:24;14.50;;;4.00;;
19251;SDS011;9760;50.944;5.304;2023-07-31T00:14:49;15.03;;;4.60;;
19251;SDS011;9760;50.944;5.304;2023-07-31T00:17:16;27.17;;;5.00;;
19251;SDS011;9760;50.944;5.304;2023-07-31T00:19:42;16.03;;;4.30;;
19251;SDS011;9760;50.944;5.304;2023-07-31T00:22:07;13.77;;;3.87;;
19251;SDS011;9760;50.944;5.304;2023-07-31T00:24:33;13.47;;;4.27;;
19251;SDS011;9760;50.944;5.304;2023-07-31T00:26:59;18.70;;;4.23;;
19251;SDS011;9760;50.944;5.304;2023-07-31T00:29:24;17.83;;;4.57;;
19251;SDS011;9760;50.944;5.304;2023-07-31T00:31:50;15.57;;;4.03;;
19251;SDS011;9760;50.944;5.304;2023-07-31T00:34:15;10.27;;;3.43;;
19251;SDS011;9760;50.944;5.304;2023-07-31T00:36:41;16.33;;;4.40;;
19251;SDS011;9760;50.944;5.304;2023-07-31T00:39:06;16.40;;;4.27;;
19251;SDS011;9760;50.944;5.304;2023-07-31T00:41:32;19.43;;;4.17;;
19251;SDS011;9760;50.944;5.304;2023-07-31T00:43:58;15.30;;;4.07;;
19251;SDS011;9760;50.944;5.304;2023-07-31T00:46:23;19.87;;;4.10;;
19251;SDS011;9760;50.944;5.304;2023-07-31T00:48:49;21.87;;;4.53;;
19251;SDS011;9760;50.944;5.304;2023-07-31T00:51:15;15.33;;;4.80;;
19251;SDS011;9760;50.944;5.304;2023-07-31T00:53:41;15.07;;;4.37;;
19251;SDS011;9760;50.944;5.304;2023-07-31T00:56:07;22.03;;;5.33;;
19251;SDS011;9760;50.944;5.304;2023-07-31T00:58:33;16.47;;;4.93;;
19251;SDS011;9760;50.944;5.304;2023-07-31T01:00:59;17.63;;;4.63;;
19251;SDS011;9760;50.944;5.304;2023-07-31T01:03:25;22.63;;;4.37;;
19251;SDS011;9760;50.944;5.304;2023-07-31T01:10:58;14.07;;;4.77;;
19251;SDS011;9760;50.944;5.304;2023-07-31T01:13:31;19.43;;;4.60;;
19251;SDS011;9760;50.944;5.304;2023-07-31T01:15:57;19.47;;;4.43;;
19251;SDS011;9760;50.944;5.304;2023-07-31T01:18:22;14.87;;;4.10;;
19251;SDS011;9760;50.944;5.304;2023-07-31T01:20:50;15.73;;;4.57;;
19251;SDS011;9760;50.944;5.304;2023-07-31T01:23:27;19.10;;;5.13;;
19251;SDS011;9760;50.944;5.304;2023-07-31T01:26:17;11.80;;;4.10;;
19251;SDS011;9760;50.944;5.304;2023-07-31T01:28:48;16.60;;;5.03;;
19251;SDS011;9760;50.944;5.304;2023-07-31T01:31:26;17.40;;;4.30;;
19251;SDS011;9760;50.944;5.304;2023-07-31T01:33:54;15.70;;;4.63;;
19251;SDS011;9760;50.944;5.304;2023-07-31T01:36:23;15.80;;;4.07;;
19251;SDS011;9760;50.944;5.304;2023-07-31T01:38:49;10.20;;;3.80;;
19251;SDS011;9760;50.944;5.304;2023-07-31T01:41:18;16.93;;;4.03;;
19251;SDS011;9760;50.944;5.304;2023-07-31T01:43:44;15.40;;;4.27;;
19251;SDS011;9760;50.944;5.304;2023-07-31T01:46:11;20.93;;;4.23;;
19251;SDS011;9760;50.944;5.304;2023-07-31T01:48:36;17.10;;;4.60;;
19251;SDS011;9760;50.944;5.304;2023-07-31T01:51:02;9.57;;;4.17;;
19251;SDS011;9760;50.944;5.304;2023-07-31T01:53:28;17.60;;;5.13;;
19251;SDS011;9760;50.944;5.304;2023-07-31T01:55:56;13.97;;;4.23;;
19251;SDS011;9760;50.944;5.304;2023-07-31T01:58:21;17.27;;;4.50;;
19251;SDS011;9760;50.944;5.304;2023-07-31T02:00:47;11.47;;;4.17;;
19251;SDS011;9760;50.944;5.304;2023-07-31T02:03:12;17.67;;;4.37;;
19251;SDS011;9760;50.944;5.304;2023-07-31T02:05:47;16.97;;;4.93;;
19251;SDS011;9760;50.944;5.304;2023-07-31T02:08:14;17.93;;;4.50;;
19251;SDS011;9760;50.944;5.304;2023-07-31T02:10:40;14.70;;;4.63;;
19251;SDS011;9760;50.944;5.304;2023-07-31T02:13:06;14.13;;;5.10;;
19251;SDS011;9760;50.944;5.304;2023-07-31T02:15:32;17.83;;;4.37;;
19251;SDS011;9760;50.944;5.304;2023-07-31T02:17:58;16.20;;;4.83;;
19251;SDS011;9760;50.944;5.304;2023-07-31T02:20:23;18.13;;;4.70;;
19251;SDS011;9760;50.944;5.304;2023-07-31T02:22:49;13.87;;;4.63;;
19251;SDS011;9760;50.944;5.304;2023-07-31T02:25:15;14.03;;;4.03;;
19251;SDS011;9760;50.944;5.304;2023-07-31T02:27:40;19.27;;;4.87;;
19251;SDS011;9760;50.944;5.304;2023-07-31T02:30:06;14.97;;;4.80;;
19251;SDS011;9760;50.944;5.304;2023-07-31T02:32:32;13.17;;;4.50;;
19251;SDS011;9760;50.944;5.304;2023-07-31T02:34:58;16.07;;;4.83;;
19251;SDS011;9760;50.944;5.304;2023-07-31T02:37:23;13.40;;;4.50;;
19251;SDS011;9760;50.944;5.304;2023-07-31T02:39:50;18.27;;;4.67;;
19251;SDS011;9760;50.944;5.304;2023-07-31T02:42:15;14.07;;;4.70;;
19251;SDS011;9760;50.944;5.304;2023-07-31T02:44:41;14.90;;;5.00;;
19251;SDS011;9760;50.944;5.304;2023-07-31T02:47:06;19.73;;;5.50;;
19251;SDS011;9760;50.944;5.304;2023-07-31T02:49:32;17.47;;;4.63;;
19251;SDS011;9760;50.944;5.304;2023-07-31T02:51:58;10.20;;;4.40;;
19251;SDS011;9760;50.944;5.304;2023-07-31T02:54:23;17.70;;;4.67;;
19251;SDS011;9760;50.944;5.304;2023-07-31T02:56:49;12.20;;;4.37;;
19251;SDS011;9760;50.944;5.304;2023-07-31T02:59:14;13.57;;;5.47;;
19251;SDS011;9760;50.944;5.304;2023-07-31T03:01:44;14.83;;;4.60;;
19251;SDS011;9760;50.944;5.304;2023-07-31T03:04:10;14.47;;;4.90;;
19251;SDS011;9760;50.944;5.304;2023-07-31T03:06:35;12.80;;;4.80;;
19251;SDS011;9760;50.944;5.304;2023-07-31T03:09:01;16.67;;;5.10;;
19251;SDS011;9760;50.944;5.304;2023-07-31T03:11:27;9.13;;;4.07;;
19251;SDS011;9760;50.944;5.304;2023-07-31T03:13:52;14.30;;;4.57;;
19251;SDS011;9760;50.944;5.304;2023-07-31T03:16:19;15.73;;;5.20;;
19251;SDS011;9760;50.944;5.304;2023-07-31T03:18:44;12.07;;;4.07;;
19251;SDS011;9760;50.944;5.304;2023-07-31T03:21:10;15.03;;;4.73;;
19251;SDS011;9760;50.944;5.304;2023-07-31T03:23:36;12.77;;;4.37;;
19251;SDS011;9760;50.944;5.304;2023-07-31T03:26:02;12.93;;;4.80;;
19251;SDS011;9760;50.944;5.304;2023-07-31T03:28:30;15.80;;;5.07;;
19251;SDS011;9760;50.944;5.304;2023-07-31T03:30:56;12.70;;;4.97;;
19251;SDS011;9760;50.944;5.304;2023-07-31T03:33:22;13.60;;;4.40;;
19251;SDS011;9760;50.944;5.304;2023-07-31T03:35:47;10.00;;;4.60;;
19251;SDS011;9760;50.944;5.304;2023-07-31T03:38:13;11.60;;;4.43;;
19251;SDS011;9760;50.944;5.304;2023-07-31T03:40:39;12.97;;;4.50;;
19251;SDS011;9760;50.944;5.304;2023-07-31T03:43:04;12.47;;;4.23;;
19251;SDS011;9760;50.944;5.304;2023-07-31T03:45:30;8.13;;;4.00;;
19251;SDS011;9760;50.944;5.304;2023-07-31T03:47:56;11.87;;;4.07;;
19251;SDS011;9760;50.944;5.304;2023-07-31T03:50:22;8.67;;;4.40;;
19251;SDS011;9760;50.944;5.304;2023-07-31T03:52:47;15.60;;;4.43;;
19251;SDS011;9760;50.944;5.304;2023-07-31T03:55:13;11.97;;;4.20;;
19251;SDS011;9760;50.944;5.304;2023-07-31T03:57:39;8.17;;;3.67;;
19251;SDS011;9760;50.944;5.304;2023-07-31T04:00:05;15.20;;;4.60;;
19251;SDS011;9760;50.944;5.304;2023-07-31T04:02:31;10.23;;;4.50;;
19251;SDS011;9760;50.944;5.304;2023-07-31T04:04:56;15.33;;;4.37;;
19251;SDS011;9760;50.944;5.304;2023-07-31T04:07:22;12.50;;;4.20;;
19251;SDS011;9760;50.944;5.304;2023-07-31T04:09:47;9.17;;;3.77;;
19251;SDS011;9760;50.944;5.304;2023-07-31T04:12:13;8.50;;;4.07;;
19251;SDS011;9760;50.944;5.304;2023-07-31T04:14:39;9.97;;;3.80;;
19251;SDS011;9760;50.944;5.304;2023-07-31T04:17:04;10.67;;;4.00;;
19251;SDS011;9760;50.944;5.304;2023-07-31T04:19:30;7.87;;;3.90;;
19251;SDS011;9760;50.944;5.304;2023-07-31T04:21:56;9.90;;;3.57;;
19251;SDS011;9760;50.944;5.304;2023-07-31T04:24:21;8.57;;;3.50;;
19251;SDS011;9760;50.944;5.304;2023-07-31T04:26:52;11.10;;;3.60;;
19251;SDS011;9760;50.944;5.304;2023-07-31T04:29:18;7.30;;;3.37;;
19251;SDS011;9760;50.944;5.304;2023-07-31T04:31:44;10.53;;;3.63;;
19251;SDS011;9760;50.944;5.304;2023-07-31T04:34:10;8.30;;;3.50;;
19251;SDS011;9760;50.944;5.304;2023-07-31T04:36:36;12.70;;;4.10;;
19251;SDS011;9760;50.944;5.304;2023-07-31T04:39:02;11.90;;;3.97;;
19251;SDS011;9760;50.944;5.304;2023-07-31T04:41:28;11.27;;;3.90;;
19251;SDS011;9760;50.944;5.304;2023-07-31T04:43:53;9.37;;;3.83;;
19251;SDS011;9760;50.944;5.304;2023-07-31T04:46:19;16.10;;;4.47;;
19251;SDS011;9760;50.944;5.304;2023-07-31T04:48:45;9.57;;;4.33;;
19251;SDS011;9760;50.944;5.304;2023-07-31T04:51:11;10.93;;;4.50;;
19251;SDS011;9760;50.944;5.304;2023-07-31T04:53:36;13.33;;;4.50;;
19251;SDS011;9760;50.944;5.304;2023-07-31T04:56:02;7.93;;;4.37;;
19251;SDS011;9760;50.944;5.304;2023-07-31T04:58:28;12.23;;;4.33;;
19251;SDS011;9760;50.944;5.304;2023-07-31T05:00:54;13.27;;;5.73;;
19251;SDS011;9760;50.944;5.304;2023-07-31T05:03:19;9.90;;;4.20;;
19251;SDS011;9760;50.944;5.304;2023-07-31T05:05:45;12.97;;;4.70;;
19251;SDS011;9760;50.944;5.304;2023-07-31T05:08:11;11.70;;;4.70;;
19251;SDS011;9760;50.944;5.304;2023-07-31T05:10:37;12.23;;;4.00;;
19251;SDS011;9760;50.944;5.304;2023-07-31T05:13:02;12.43;;;4.60;;
19251;SDS011;9760;50.944;5.304;2023-07-31T05:15:28;13.47;;;4.40;;
19251;SDS011;9760;50.944;5.304;2023-07-31T05:17:54;11.73;;;4.80;;
19251;SDS011;9760;50.944;5.304;2023-07-31T05:20:20;15.10;;;4.83;;
19251;SDS011;9760;50.944;5.304;2023-07-31T05:22:46;11.60;;;4.80;;
19251;SDS011;9760;50.944;5.304;2023-07-31T05:25:12;10.97;;;4.67;;
19251;SDS011;9760;50.944;5.304;2023-07-31T05:27:38;14.43;;;5.40;;
19251;SDS011;9760;50.944;5.304;2023-07-31T05:30:04;18.00;;;5.77;;
19251;SDS011;9760;50.944;5.304;2023-07-31T05:32:30;12.07;;;4.93;;
19251;SDS011;9760;50.944;5.304;2023-07-31T05:34:56;9.73;;;4.83;;
19251;SDS011;9760;50.944;5.304;2023-07-31T05:37:22;10.00;;;4.40;;
19251;SDS011;9760;50.944;5.304;2023-07-31T05:39:47;14.40;;;4.30;;
19251;SDS011;9760;50.944;5.304;2023-07-31T05:42:13;11.87;;;4.30;;
19251;SDS011;9760;50.944;5.304;2023-07-31T05:44:39;10.60;;;4.50;;
19251;SDS011;9760;50.944;5.304;2023-07-31T05:47:05;14.20;;;5.10;;
19251;SDS011;9760;50.944;5.304;2023-07-31T05:49:30;9.40;;;3.77;;
19251;SDS011;9760;50.944;5.304;2023-07-31T05:51:56;11.27;;;4.27;;
19251;SDS011;9760;50.944;5.304;2023-07-31T05:54:21;14.43;;;4.33;;
19251;SDS011;9760;50.944;5.304;2023-07-31T05:56:47;10.23;;;4.17;;
19251;SDS011;9760;50.944;5.304;2023-07-31T05:59:13;13.60;;;4.33;;
19251;SDS011;9760;50.944;5.304;2023-07-31T06:01:39;13.70;;;4.57;;
19251;SDS011;9760;50.944;5.304;2023-07-31T06:04:05;12.33;;;4.73;;
19251;SDS011;9760;50.944;5.304;2023-07-31T06:06:31;13.90;;;4.43;;
19251;SDS011;9760;50.944;5.304;2023-07-31T06:08:56;12.13;;;4.13;;
19251;SDS011;9760;50.944;5.304;2023-07-31T06:11:22;11.03;;;3.93;;
19251;SDS011;9760;50.944;5.304;2023-07-31T06:13:48;10.97;;;4.30;;
19251;SDS011;9760;50.944;5.304;2023-07-31T06:16:15;9.90;;;4.63;;
19251;SDS011;9760;50.944;5.304;2023-07-31T06:18:41;10.93;;;4.33;;
19251;SDS011;9760;50.944;5.304;2023-07-31T06:21:08;10.13;;;3.73;;
19251;SDS011;9760;50.944;5.304;2023-07-31T06:23:34;9.83;;;4.63;;
19251;SDS011;9760;50.944;5.304;2023-07-31T06:26:00;8.80;;;4.60;;
19251;SDS011;9760;50.944;5.304;2023-07-31T06:28:28;12.97;;;4.37;;
19251;SDS011;9760;50.944;5.304;2023-07-31T06:30:55;10.23;;;4.50;;
19251;SDS011;9760;50.944;5.304;2023-07-31T06:33:21;7.47;;;4.50;;
19251;SDS011;9760;50.944;5.304;2023-07-31T06:35:47;11.47;;;4.50;;
19251;SDS011;9760;50.944;5.304;2023-07-31T06:38:12;10.63;;;4.83;;
19251;SDS011;9760;50.944;5.304;2023-07-31T06:40:38;9.03;;;5.30;;
19251;SDS011;9760;50.944;5.304;2023-07-31T06:43:04;10.37;;;4.40;;
19251;SDS011;9760;50.944;5.304;2023-07-31T06:45:36;12.93;;;5.40;;
19251;SDS011;9760;50.944;5.304;2023-07-31T06:48:03;12.50;;;5.47;;
19251;SDS011;9760;50.944;5.304;2023-07-31T06:50:29;9.60;;;5.00;;
19251;SDS011;9760;50.944;5.304;2023-07-31T06:52:56;11.40;;;5.60;;
19251;SDS011;9760;50.944;5.304;2023-07-31T06:55:22;12.37;;;6.00;;
19251;SDS011;9760;50.944;5.304;2023-07-31T06:57:48;12.30;;;5.90;;
19251;SDS011;9760;50.944;5.304;2023-07-31T07:00:15;12.43;;;5.47;;
19251;SDS011;9760;50.944;5.304;2023-07-31T07:02:41;10.50;;;5.07;;
19251;SDS011;9760;50.944;5.304;2023-07-31T07:05:07;12.30;;;5.40;;
19251;SDS011;9760;50.944;5.304;2023-07-31T07:07:34;14.90;;;5.97;;
19251;SDS011;9760;50.944;5.304;2023-07-31T07:10:00;9.57;;;5.13;;
19251;SDS011;9760;50.944;5.304;2023-07-31T07:12:27;13.50;;;4.80;;
19251;SDS011;9760;50.944;5.304;2023-07-31T07:14:54;10.40;;;4.97;;
19251;SDS011;9760;50.944;5.304;2023-07-31T07:17:20;11.23;;;5.37;;
19251;SDS011;9760;50.944;5.304;2023-07-31T07:19:47;11.83;;;5.20;;
19251;SDS011;9760;50.944;5.304;2023-07-31T07:22:13;8.27;;;5.03;;
19251;SDS011;9760;50.944;5.304;2023-07-31T07:24:39;10.87;;;5.10;;
19251;SDS011;9760;50.944;5.304;2023-07-31T07:27:05;11.27;;;5.17;;
19251;SDS011;9760;50.944;5.304;2023-07-31T07:29:31;10.30;;;5.07;;
19251;SDS011;9760;50.944;5.304;2023-07-31T07:31:56;14.37;;;5.03;;
19251;SDS011;9760;50.944;5.304;2023-07-31T07:34:22;10.43;;;4.90;;
19251;SDS011;9760;50.944;5.304;2023-07-31T07:36:50;12.00;;;4.73;;
19251;SDS011;9760;50.944;5.304;2023-07-31T07:39:16;9.23;;;4.63;;
19251;SDS011;9760;50.944;5.304;2023-07-31T07:41:41;10.87;;;4.63;;
19251;SDS011;9760;50.944;5.304;2023-07-31T07:44:07;10.30;;;4.33;;
19251;SDS011;9760;50.944;5.304;2023-07-31T07:46:33;10.07;;;4.00;;
19251;SDS011;9760;50.944;5.304;2023-07-31T07:48:59;11.97;;;4.20;;
19251;SDS011;9760;50.944;5.304;2023-07-31T07:51:25;7.70;;;4.10;;
19251;SDS011;9760;50.944;5.304;2023-07-31T07:53:50;10.37;;;4.20;;
19251;SDS011;9760;50.944;5.304;2023-07-31T07:56:16;8.23;;;3.90;;
19251;SDS011;9760;50.944;5.304;2023-07-31T07:58:42;5.33;;;3.20;;
19251;SDS011;9760;50.944;5.304;2023-07-31T08:01:08;6.93;;;3.83;;
19251;SDS011;9760;50.944;5.304;2023-07-31T08:03:33;8.93;;;3.47;;
19251;SDS011;9760;50.944;5.304;2023-07-31T08:05:59;10.30;;;3.57;;
19251;SDS011;9760;50.944;5.304;2023-07-31T08:08:26;8.73;;;3.43;;
19251;SDS011;9760;50.944;5.304;2023-07-31T08:10:53;8.90;;;3.80;;
19251;SDS011;9760;50.944;5.304;2023-07-31T08:13:18;6.23;;;3.63;;
19251;SDS011;9760;50.944;5.304;2023-07-31T08:15:44;10.37;;;3.53;;
19251;SDS011;9760;50.944;5.304;2023-07-31T08:18:10;10.93;;;3.70;;
19251;SDS011;9760;50.944;5.304;2023-07-31T08:20:36;6.33;;;3.50;;
19251;SDS011;9760;50.944;5.304;2023-07-31T08:23:02;10.10;;;3.03;;
19251;SDS011;9760;50.944;5.304;2023-07-31T08:25:28;10.13;;;3.40;;
19251;SDS011;9760;50.944;5.304;2023-07-31T08:27:54;7.83;;;2.90;;
19251;SDS011;9760;50.944;5.304;2023-07-31T08:30:20;8.93;;;3.07;;
19251;SDS011;9760;50.944;5.304;2023-07-31T08:32:47;6.87;;;3.47;;
19251;SDS011;9760;50.944;5.304;2023-07-31T08:35:14;7.07;;;3.03;;
19251;SDS011;9760;50.944;5.304;2023-07-31T08:37:39;7.37;;;3.40;;
19251;SDS011;9760;50.944;5.304;2023-07-31T08:40:05;9.70;;;3.20;;
19251;SDS011;9760;50.944;5.304;2023-07-31T08:42:31;7.87;;;3.03;;
19251;SDS011;9760;50.944;5.304;2023-07-31T08:44:57;6.37;;;2.90;;
19251;SDS011;9760;50.944;5.304;2023-07-31T08:47:25;7.10;;;3.13;;
19251;SDS011;9760;50.944;5.304;2023-07-31T08:49:52;6.43;;;3.23;;
19251;SDS011;9760;50.944;5.304;2023-07-31T08:52:19;11.07;;;3.33;;
19251;SDS011;9760;50.944;5.304;2023-07-31T08:54:45;9.53;;;2.97;;
19251;SDS011;9760;50.944;5.304;2023-07-31T08:57:11;11.23;;;3.63;;
19251;SDS011;9760;50.944;5.304;2023-07-31T08:59:37;8.57;;;3.33;;
19251;SDS011;9760;50.944;5.304;2023-07-31T09:02:07;7.80;;;3.40;;
19251;SDS011;9760;50.944;5.304;2023-07-31T09:04:33;9.03;;;3.10;;
19251;SDS011;9760;50.944;5.304;2023-07-31T09:07:00;10.50;;;3.90;;
19251;SDS011;9760;50.944;5.304;2023-07-31T09:09:29;11.63;;;3.43;;
19251;SDS011;9760;50.944;5.304;2023-07-31T09:11:57;7.33;;;3.07;;
19251;SDS011;9760;50.944;5.304;2023-07-31T09:14:24;5.17;;;2.93;;
19251;SDS011;9760;50.944;5.304;2023-07-31T09:16:54;6.50;;;2.70;;
19251;SDS011;9760;50.944;5.304;2023-07-31T09:19:25;8.57;;;3.23;;
19251;SDS011;9760;50.944;5.304;2023-07-31T09:21:51;5.83;;;3.30;;
19251;SDS011;9760;50.944;5.304;2023-07-31T09:24:35;6.50;;;2.83;;
19251;SDS011;9760;50.944;5.304;2023-07-31T09:27:01;8.53;;;3.00;;
19251;SDS011;9760;50.944;5.304;2023-07-31T09:29:27;5.63;;;2.67;;
19251;SDS011;9760;50.944;5.304;2023-07-31T09:31:54;6.00;;;2.50;;
19251;SDS011;9760;50.944;5.304;2023-07-31T09:34:21;6.97;;;2.83;;
19251;SDS011;9760;50.944;5.304;2023-07-31T09:36:54;5.70;;;2.40;;
19251;SDS011;9760;50.944;5.304;2023-07-31T09:39:23;8.87;;;2.83;;
19251;SDS011;9760;50.944;5.304;2023-07-31T09:41:54;5.23;;;2.73;;
19251;SDS011;9760;50.944;5.304;2023-07-31T09:44:21;4.07;;;2.23;;
19251;SDS011;9760;50.944;5.304;2023-07-31T09:46:47;7.13;;;2.00;;
19251;SDS011;9760;50.944;5.304;2023-07-31T09:49:14;3.73;;;1.70;;
19251;SDS011;9760;50.944;5.304;2023-07-31T09:51:40;5.93;;;1.80;;
19251;SDS011;9760;50.944;5.304;2023-07-31T09:54:11;4.00;;;1.87;;
19251;SDS011;9760;50.944;5.304;2023-07-31T09:56:47;3.77;;;2.10;;
19251;SDS011;9760;50.944;5.304;2023-07-31T09:59:14;3.87;;;1.90;;
19251;SDS011;9760;50.944;5.304;2023-07-31T10:01:42;3.37;;;1.83;;
19251;SDS011;9760;50.944;5.304;2023-07-31T10:04:09;4.30;;;1.50;;
19251;SDS011;9760;50.944;5.304;2023-07-31T10:06:36;3.57;;;1.90;;
19251;SDS011;9760;50.944;5.304;2023-07-31T10:09:05;3.47;;;1.77;;
19251;SDS011;9760;50.944;5.304;2023-07-31T10:11:37;5.87;;;2.07;;
19251;SDS011;9760;50.944;5.304;2023-07-31T10:14:07;4.70;;;1.80;;
19251;SDS011;9760;50.944;5.304;2023-07-31T10:16:34;4.80;;;1.97;;
19251;SDS011;9760;50.944;5.304;2023-07-31T10:19:02;4.77;;;2.40;;
19251;SDS011;9760;50.944;5.304;2023-07-31T10:21:28;7.50;;;2.43;;
19251;SDS011;9760;50.944;5.304;2023-07-31T10:23:59;5.60;;;2.10;;
19251;SDS011;9760;50.944;5.304;2023-07-31T10:26:28;6.63;;;2.37;;
19251;SDS011;9760;50.944;5.304;2023-07-31T10:28:55;7.10;;;3.10;;
19251;SDS011;9760;50.944;5.304;2023-07-31T10:31:22;8.87;;;3.03;;
19251;SDS011;9760;50.944;5.304;2023-07-31T10:33:49;9.37;;;3.03;;
19251;SDS011;9760;50.944;5.304;2023-07-31T10:36:17;5.50;;;2.67;;
19251;SDS011;9760;50.944;5.304;2023-07-31T10:38:45;8.20;;;3.60;;
19251;SDS011;9760;50.944;5.304;2023-07-31T10:41:13;8.17;;;3.00;;
19251;SDS011;9760;50.944;5.304;2023-07-31T10:43:39;5.93;;;2.93;;
19251;SDS011;9760;50.944;5.304;2023-07-31T10:46:11;8.00;;;3.20;;
19251;SDS011;9760;50.944;5.304;2023-07-31T10:48:40;7.70;;;3.23;;
19251;SDS011;9760;50.944;5.304;2023-07-31T10:51:09;6.63;;;3.10;;
19251;SDS011;9760;50.944;5.304;2023-07-31T10:53:37;10.90;;;3.30;;
19251;SDS011;9760;50.944;5.304;2023-07-31T10:56:04;7.27;;;3.53;;
19251;SDS011;9760;50.944;5.304;2023-07-31T10:58:34;6.53;;;3.33;;
19251;SDS011;9760;50.944;5.304;2023-07-31T11:01:01;11.93;;;3.80;;
19251;SDS011;9760;50.944;5.304;2023-07-31T11:03:45;8.10;;;3.63;;
19251;SDS011;9760;50.944;5.304;2023-07-31T11:06:13;7.17;;;3.20;;
19251;SDS011;9760;50.944;5.304;2023-07-31T11:08:43;11.27;;;4.33;;
19251;SDS011;9760;50.944;5.304;2023-07-31T11:11:13;9.97;;;4.07;;
19251;SDS011;9760;50.944;5.304;2023-07-31T11:16:20;8.63;;;3.70;;
19251;SDS011;9760;50.944;5.304;2023-07-31T11:18:48;14.40;;;4.47;;
19251;SDS011;9760;50.944;5.304;2023-07-31T11:21:15;13.20;;;4.13;;
19251;SDS011;9760;50.944;5.304;2023-07-31T11:23:46;8.97;;;4.20;;
19251;SDS011;9760;50.944;5.304;2023-07-31T11:26:13;10.90;;;4.13;;
19251;SDS011;9760;50.944;5.304;2023-07-31T11:28:40;15.50;;;4.97;;
19251;SDS011;9760;50.944;5.304;2023-07-31T11:31:08;11.17;;;3.83;;
19251;SDS011;9760;50.944;5.304;2023-07-31T11:33:35;9.50;;;4.20;;
19251;SDS011;9760;50.944;5.304;2023-07-31T11:36:01;12.53;;;4.03;;
19251;SDS011;9760;50.944;5.304;2023-07-31T11:38:28;6.67;;;3.70;;
19251;SDS011;9760;50.944;5.304;2023-07-31T11:40:56;8.60;;;4.40;;
19251;SDS011;9760;50.944;5.304;2023-07-31T11:43:26;11.53;;;4.20;;
19251;SDS011;9760;50.944;5.304;2023-07-31T11:45:53;7.87;;;3.90;;
19251;SDS011;9760;50.944;5.304;2023-07-31T11:50:53;17.37;;;5.10;;
19251;SDS011;9760;50.944;5.304;2023-07-31T11:53:25;15.87;;;4.27;;
19251;SDS011;9760;50.944;5.304;2023-07-31T11:56:03;11.30;;;4.07;;
19251;SDS011;9760;50.944;5.304;2023-07-31T11:58:30;11.77;;;3.83;;
19251;SDS011;9760;50.944;5.304;2023-07-31T12:00:58;10.00;;;3.60;;
19251;SDS011;9760;50.944;5.304;2023-07-31T12:03:26;9.53;;;3.87;;
19251;SDS011;9760;50.944;5.304;2023-07-31T12:05:52;17.90;;;4.43;;
19251;SDS011;9760;50.944;5.304;2023-07-31T12:08:20;12.30;;;4.10;;
19251;SDS011;9760;50.944;5.304;2023-07-31T12:10:49;9.93;;;4.00;;
19251;SDS011;9760;50.944;5.304;2023-07-31T12:13:22;13.87;;;3.77;;
19251;SDS011;9760;50.944;5.304;2023-07-31T12:15:53;9.37;;;3.53;;
19251;SDS011;9760;50.944;5.304;2023-07-31T12:18:24;8.93;;;3.23;;
19251;SDS011;9760;50.944;5.304;2023-07-31T12:20:54;10.73;;;3.80;;
19251;SDS011;9760;50.944;5.304;2023-07-31T12:23:28;13.70;;;4.33;;
19251;SDS011;9760;50.944;5.304;2023-07-31T12:26:08;10.27;;;3.93;;
19251;SDS011;9760;50.944;5.304;2023-07-31T12:28:43;13.07;;;4.07;;
19251;SDS011;9760;50.944;5.304;2023-07-31T12:31:15;11.07;;;3.97;;
19251;SDS011;9760;50.944;5.304;2023-07-31T12:33:42;8.53;;;3.67;;
19251;SDS011;9760;50.944;5.304;2023-07-31T12:36:09;12.93;;;3.60;;
19251;SDS011;9760;50.944;5.304;2023-07-31T12:38:37;12.53;;;3.73;;
19251;SDS011;9760;50.944;5.304;2023-07-31T12:41:02;8.57;;;3.27;;
19251;SDS011;9760;50.944;5.304;2023-07-31T12:43:29;12.70;;;3.10;;
19251;SDS011;9760;50.944;5.304;2023-07-31T12:45:54;12.50;;;3.70;;
19251;SDS011;9760;50.944;5.304;2023-07-31T12:48:21;7.70;;;3.47;;
19251;SDS011;9760;50.944;5.304;2023-07-31T12:50:47;9.87;;;3.63;;
19251;SDS011;9760;50.944;5.304;2023-07-31T12:53:13;8.30;;;3.67;;
19251;SDS011;9760;50.944;5.304;2023-07-31T12:55:39;7.47;;;3.53;;
19251;SDS011;9760;50.944;5.304;2023-07-31T12:58:05;9.47;;;3.80;;
19251;SDS011;9760;50.944;5.304;2023-07-31T13:00:31;14.20;;;3.77;;
19251;SDS011;9760;50.944;5.304;2023-07-31T13:02:56;8.27;;;3.53;;
19251;SDS011;9760;50.944;5.304;2023-07-31T13:05:22;10.53;;;3.90;;
19251;SDS011;9760;50.944;5.304;2023-07-31T13:07:48;6.97;;;4.23;;
19251;SDS011;9760;50.944;5.304;2023-07-31T13:10:14;10.53;;;3.57;;
19251;SDS011;9760;50.944;5.304;2023-07-31T13:12:40;10.73;;;4.40;;
19251;SDS011;9760;50.944;5.304;2023-07-31T13:15:06;10.20;;;4.10;;
19251;SDS011;9760;50.944;5.304;2023-07-31T13:17:32;11.97;;;4.13;;
19251;SDS011;9760;50.944;5.304;2023-07-31T13:19:58;11.97;;;4.30;;
19251;SDS011;9760;50.944;5.304;2023-07-31T13:22:24;10.93;;;3.53;;
19251;SDS011;9760;50.944;5.304;2023-07-31T13:24:50;10.63;;;4.13;;
19251;SDS011;9760;50.944;5.304;2023-07-31T13:27:16;7.80;;;3.93;;
19251;SDS011;9760;50.944;5.304;2023-07-31T13:29:44;11.33;;;3.70;;
19251;SDS011;9760;50.944;5.304;2023-07-31T13:32:10;10.47;;;4.50;;
19251;SDS011;9760;50.944;5.304;2023-07-31T13:34:36;15.53;;;4.53;;
19251;SDS011;9760;50.944;5.304;2023-07-31T13:37:02;15.47;;;4.33;;
19251;SDS011;9760;50.944;5.304;2023-07-31T13:39:28;11.00;;;4.20;;
19251;SDS011;9760;50.944;5.304;2023-07-31T13:41:54;10.70;;;4.37;;
19251;SDS011;9760;50.944;5.304;2023-07-31T13:44:20;14.73;;;4.57;;
19251;SDS011;9760;50.944;5.304;2023-07-31T13:46:46;9.93;;;4.40;;
19251;SDS011;9760;50.944;5.304;2023-07-31T13:49:11;10.70;;;4.00;;
19251;SDS011;9760;50.944;5.304;2023-07-31T13:51:37;8.47;;;4.40;;
19251;SDS011;9760;50.944;5.304;2023-07-31T13:54:04;10.57;;;3.80;;
19251;SDS011;9760;50.944;5.304;2023-07-31T13:56:31;11.60;;;4.30;;
19251;SDS011;9760;50.944;5.304;2023-07-31T13:58:57;13.53;;;4.10;;
19251;SDS011;9760;50.944;5.304;2023-07-31T14:01:23;12.53;;;4.70;;
19251;SDS011;9760;50.944;5.304;2023-07-31T14:03:49;9.40;;;3.97;;
19251;SDS011;9760;50.944;5.304;2023-07-31T14:06:14;9.97;;;4.60;;
19251;SDS011;9760;50.944;5.304;2023-07-31T14:08:40;15.10;;;4.30;;
19251;SDS011;9760;50.944;5.304;2023-07-31T14:11:06;14.47;;;4.30;;
19251;SDS011;9760;50.944;5.304;2023-07-31T14:13:31;11.57;;;4.43;;
19251;SDS011;9760;50.944;5.304;2023-07-31T14:15:57;7.63;;;3.83;;
19251;SDS011;9760;50.944;5.304;2023-07-31T14:18:23;11.40;;;4.20;;
19251;SDS011;9760;50.944;5.304;2023-07-31T14:20:48;12.00;;;4.67;;
19251;SDS011;9760;50.944;5.304;2023-07-31T14:23:14;12.07;;;4.37;;
19251;SDS011;9760;50.944;5.304;2023-07-31T14:25:40;13.73;;;4.33;;
19251;SDS011;9760;50.944;5.304;2023-07-31T14:28:06;11.67;;;4.00;;
19251;SDS011;9760;50.944;5.304;2023-07-31T14:30:32;13.40;;;4.27;;
19251;SDS011;9760;50.944;5.304;2023-07-31T14:32:58;10.40;;;3.70;;
19251;SDS011;9760;50.944;5.304;2023-07-31T14:35:25;9.13;;;4.00;;
19251;SDS011;9760;50.944;5.304;2023-07-31T14:37:51;11.93;;;3.90;;
19251;SDS011;9760;50.944;5.304;2023-07-31T14:40:17;12.57;;;4.23;;
19251;SDS011;9760;50.944;5.304;2023-07-31T14:42:42;10.73;;;5.00;;
19251;SDS011;9760;50.944;5.304;2023-07-31T14:45:08;7.70;;;3.70;;
19251;SDS011;9760;50.944;5.304;2023-07-31T14:47:35;16.07;;;3.87;;
19251;SDS011;9760;50.944;5.304;2023-07-31T14:50:01;8.50;;;3.20;;
19251;SDS011;9760;50.944;5.304;2023-07-31T14:52:28;4.43;;;2.70;;
19251;SDS011;9760;50.944;5.304;2023-07-31T14:54:54;8.47;;;3.33;;
19251;SDS011;9760;50.944;5.304;2023-07-31T14:57:19;7.10;;;3.00;;
19251;SDS011;9760;50.944;5.304;2023-07-31T14:59:45;7.10;;;2.90;;